sensor_id;sensor_type;location;lat;lon;timestamp;pressure;altitude;pressure_sealevel;temperature;humidity
32492;BME280;20605;49.742;18.802;2023-06-04T00:00:46;98127.64;;;7.98;100.00
32492;BME280;20605;49.742;18.802;2023-06-04T00:03:11;98124.52;;;7.98;100.00
32492;BME280;20605;49.742;18.802;2023-06-04T00:05:37;98124.71;;;7.97;100.00
32492;BME280;20605;49.742;18.802;2023-06-04T00:08:02;98123.34;;;7.97;100.00
32492;BME280;20605;49.742;18.802;2023-06-04T00:10:28;98119.52;;;7.97;100.00
32492;BME280;20605;49.742;18.802;2023-06-04T00:12:53;98116.08;;;7.96;100.00
32492;BME280;20605;49.742;18.802;2023-06-04T00:15:19;98116.64;;;7.94;100.00
32492;BME280;20605;49.742;18.802;2023-06-04T00:17:44;98116.49;;;7.92;100.00
32492;BME280;20605;49.742;18.802;2023-06-04T00:20:10;98117.59;;;7.88;100.00
32492;BME280;20605;49.742;18.802;2023-06-04T00:22:36;98114.19;;;7.84;100.00
32492;BME280;20605;49.742;18.802;2023-06-04T00:25:01;98117.48;;;7.83;100.00
32492;BME280;20605;49.742;18.802;2023-06-04T00:27:27;98114.92;;;7.82;100.00
32492;BME280;20605;49.742;18.802;2023-06-04T00:29:52;98114.81;;;7.79;100.00
32492;BME280;20605;49.742;18.802;2023-06-04T00:32:18;98114.89;;;7.76;100.00
32492;BME280;20605;49.742;18.802;2023-06-04T00:34:49;98111.48;;;7.72;100.00
32492;BME280;20605;49.742;18.802;2023-06-04T00:37:15;98107.19;;;7.70;100.00
32492;BME280;20605;49.742;18.802;2023-06-04T00:39:40;98105.83;;;7.69;100.00
32492;BME280;20605;49.742;18.802;2023-06-04T00:42:06;98105.82;;;7.69;100.00
32492;BME280;20605;49.742;18.802;2023-06-04T00:44:32;98102.20;;;7.68;100.00
32492;BME280;20605;49.742;18.802;2023-06-04T00:46:58;98101.05;;;7.65;100.00
32492;BME280;20605;49.742;18.802;2023-06-04T00:49:24;98097.83;;;7.61;100.00
32492;BME280;20605;49.742;18.802;2023-06-04T00:51:50;98091.30;;;7.58;100.00
32492;BME280;20605;49.742;18.802;2023-06-04T00:54:15;98091.31;;;7.57;100.00
32492;BME280;20605;49.742;18.802;2023-06-04T00:56:43;98089.76;;;7.57;100.00
32492;BME280;20605;49.742;18.802;2023-06-04T00:59:08;98090.45;;;7.57;100.00
32492;BME280;20605;49.742;18.802;2023-06-04T01:04:00;98090.83;;;7.55;100.00
32492;BME280;20605;49.742;18.802;2023-06-04T01:06:31;98088.74;;;7.56;100.00
32492;BME280;20605;49.742;18.802;2023-06-04T01:08:59;98092.68;;;7.58;100.00
32492;BME280;20605;49.742;18.802;2023-06-04T01:11:32;98090.94;;;7.59;100.00
32492;BME280;20605;49.742;18.802;2023-06-04T01:13:58;98093.86;;;7.60;100.00
32492;BME280;20605;49.742;18.802;2023-06-04T01:16:24;98095.77;;;7.60;100.00
32492;BME280;20605;49.742;18.802;2023-06-04T01:18:50;98095.80;;;7.58;100.00
32492;BME280;20605;49.742;18.802;2023-06-04T01:21:16;98097.58;;;7.54;100.00
32492;BME280;20605;49.742;18.802;2023-06-04T01:23:50;98096.45;;;7.48;100.00
32492;BME280;20605;49.742;18.802;2023-06-04T01:26:28;98096.87;;;7.43;100.00
32492;BME280;20605;49.742;18.802;2023-06-04T01:28:55;98095.42;;;7.36;100.00
32492;BME280;20605;49.742;18.802;2023-06-04T01:31:21;98096.25;;;7.26;100.00
32492;BME280;20605;49.742;18.802;2023-06-04T01:33:54;98091.33;;;7.20;100.00
32492;BME280;20605;49.742;18.802;2023-06-04T01:36:21;98094.46;;;7.17;100.00
32492;BME280;20605;49.742;18.802;2023-06-04T01:38:46;98087.58;;;7.16;100.00
32492;BME280;20605;49.742;18.802;2023-06-04T01:41:12;98087.22;;;7.17;100.00
32492;BME280;20605;49.742;18.802;2023-06-04T01:43:38;98085.98;;;7.19;100.00
32492;BME280;20605;49.742;18.802;2023-06-04T01:46:03;98085.99;;;7.19;100.00
32492;BME280;20605;49.742;18.802;2023-06-04T01:48:31;98087.92;;;7.16;100.00
32492;BME280;20605;49.742;18.802;2023-06-04T01:50:57;98086.08;;;7.11;100.00
32492;BME280;20605;49.742;18.802;2023-06-04T01:53:23;98089.92;;;7.09;100.00
32492;BME280;20605;49.742;18.802;2023-06-04T01:55:48;98090.65;;;7.06;100.00
32492;BME280;20605;49.742;18.802;2023-06-04T01:58:18;98091.52;;;7.05;100.00
32492;BME280;20605;49.742;18.802;2023-06-04T02:00:48;98095.84;;;7.06;100.00
32492;BME280;20605;49.742;18.802;2023-06-04T02:03:15;98091.17;;;7.05;100.00
32492;BME280;20605;49.742;18.802;2023-06-04T02:05:40;98093.62;;;7.03;100.00
32492;BME280;20605;49.742;18.802;2023-06-04T02:08:06;98092.75;;;7.04;100.00
32492;BME280;20605;49.742;18.802;2023-06-04T02:10:32;98091.85;;;7.07;100.00
32492;BME280;20605;49.742;18.802;2023-06-04T02:12:58;98093.21;;;7.08;100.00
32492;BME280;20605;49.742;18.802;2023-06-04T02:15:24;98089.27;;;7.06;100.00
32492;BME280;20605;49.742;18.802;2023-06-04T02:17:50;98092.77;;;7.01;100.00
32492;BME280;20605;49.742;18.802;2023-06-04T02:20:16;98091.47;;;6.96;100.00
32492;BME280;20605;49.742;18.802;2023-06-04T02:22:42;98090.89;;;6.88;100.00
32492;BME280;20605;49.742;18.802;2023-06-04T02:25:08;98088.21;;;6.80;100.00
32492;BME280;20605;49.742;18.802;2023-06-04T02:27:36;98089.15;;;6.74;100.00
32492;BME280;20605;49.742;18.802;2023-06-04T02:30:02;98084.73;;;6.68;100.00
32492;BME280;20605;49.742;18.802;2023-06-04T02:32:28;98084.96;;;6.62;100.00
32492;BME280;20605;49.742;18.802;2023-06-04T02:34:54;98082.42;;;6.59;100.00
32492;BME280;20605;49.742;18.802;2023-06-04T02:37:20;98081.09;;;6.54;100.00
32492;BME280;20605;49.742;18.802;2023-06-04T02:39:46;98083.38;;;6.51;100.00
32492;BME280;20605;49.742;18.802;2023-06-04T02:42:12;98079.80;;;6.50;100.00
32492;BME280;20605;49.742;18.802;2023-06-04T02:44:37;98081.36;;;6.48;100.00
32492;BME280;20605;49.742;18.802;2023-06-04T02:47:03;98084.32;;;6.46;100.00
32492;BME280;20605;49.742;18.802;2023-06-04T02:49:29;98084.95;;;6.50;100.00
32492;BME280;20605;49.742;18.802;2023-06-04T02:51:55;98084.48;;;6.59;100.00
32492;BME280;20605;49.742;18.802;2023-06-04T02:54:21;98084.73;;;6.67;100.00
32492;BME280;20605;49.742;18.802;2023-06-04T02:56:47;98085.21;;;6.71;100.00
32492;BME280;20605;49.742;18.802;2023-06-04T02:59:14;98090.84;;;6.77;100.00
32492;BME280;20605;49.742;18.802;2023-06-04T03:01:39;98090.11;;;6.80;100.00
32492;BME280;20605;49.742;18.802;2023-06-04T03:04:05;98089.58;;;6.81;100.00
32492;BME280;20605;49.742;18.802;2023-06-04T03:06:35;98088.23;;;6.78;100.00
32492;BME280;20605;49.742;18.802;2023-06-04T03:09:03;98091.38;;;6.75;100.00
32492;BME280;20605;49.742;18.802;2023-06-04T03:11:29;98094.48;;;6.76;100.00
32492;BME280;20605;49.742;18.802;2023-06-04T03:13:55;98098.11;;;6.76;100.00
32492;BME280;20605;49.742;18.802;2023-06-04T03:16:20;98098.80;;;6.75;100.00
32492;BME280;20605;49.742;18.802;2023-06-04T03:18:46;98101.13;;;6.82;100.00
32492;BME280;20605;49.742;18.802;2023-06-04T03:21:12;98099.60;;;6.95;100.00
32492;BME280;20605;49.742;18.802;2023-06-04T03:23:38;98101.51;;;7.08;100.00
32492;BME280;20605;49.742;18.802;2023-06-04T03:26:04;98104.11;;;7.20;100.00
32492;BME280;20605;49.742;18.802;2023-06-04T03:28:31;98103.05;;;7.33;100.00
32492;BME280;20605;49.742;18.802;2023-06-04T03:30:57;98106.62;;;7.50;100.00
32492;BME280;20605;49.742;18.802;2023-06-04T03:33:24;98107.46;;;7.74;100.00
32492;BME280;20605;49.742;18.802;2023-06-04T03:35:51;98109.88;;;7.95;100.00
32492;BME280;20605;49.742;18.802;2023-06-04T03:38:18;98111.09;;;8.15;100.00
32492;BME280;20605;49.742;18.802;2023-06-04T03:40:43;98111.07;;;8.37;100.00
32492;BME280;20605;49.742;18.802;2023-06-04T03:43:09;98109.21;;;8.54;100.00
32492;BME280;20605;49.742;18.802;2023-06-04T03:45:35;98107.30;;;8.73;100.00
32492;BME280;20605;49.742;18.802;2023-06-04T03:48:01;98110.52;;;8.95;100.00
32492;BME280;20605;49.742;18.802;2023-06-04T03:50:27;98107.31;;;9.14;100.00
32492;BME280;20605;49.742;18.802;2023-06-04T03:52:54;98108.48;;;9.31;100.00
32492;BME280;20605;49.742;18.802;2023-06-04T03:55:20;98107.23;;;9.49;100.00
32492;BME280;20605;49.742;18.802;2023-06-04T03:57:47;98110.02;;;9.71;100.00
32492;BME280;20605;49.742;18.802;2023-06-04T04:00:14;98115.50;;;9.96;100.00
32492;BME280;20605;49.742;18.802;2023-06-04T04:02:40;98117.38;;;10.26;100.00
32492;BME280;20605;49.742;18.802;2023-06-04T04:05:07;98120.14;;;10.52;100.00
32492;BME280;20605;49.742;18.802;2023-06-04T04:07:33;98118.13;;;10.76;100.00
32492;BME280;20605;49.742;18.802;2023-06-04T04:09:59;98122.45;;;10.95;100.00
32492;BME280;20605;49.742;18.802;2023-06-04T04:12:24;98124.27;;;11.28;100.00
32492;BME280;20605;49.742;18.802;2023-06-04T04:14:50;98122.94;;;11.50;100.00
32492;BME280;20605;49.742;18.802;2023-06-04T04:17:16;98122.59;;;11.72;100.00
32492;BME280;20605;49.742;18.802;2023-06-04T04:19:42;98123.25;;;12.12;100.00
32492;BME280;20605;49.742;18.802;2023-06-04T04:22:09;98124.38;;;12.61;100.00
32492;BME280;20605;49.742;18.802;2023-06-04T04:24:36;98123.06;;;12.83;100.00
32492;BME280;20605;49.742;18.802;2023-06-04T04:27:03;98121.95;;;13.23;100.00
32492;BME280;20605;49.742;18.802;2023-06-04T04:29:32;98129.98;;;13.87;100.00
32492;BME280;20605;49.742;18.802;2023-06-04T04:32:00;98129.55;;;14.31;100.00
32492;BME280;20605;49.742;18.802;2023-06-04T04:34:27;98128.09;;;14.78;100.00
32492;BME280;20605;49.742;18.802;2023-06-04T04:36:53;98127.48;;;15.12;98.71
32492;BME280;20605;49.742;18.802;2023-06-04T04:39:23;98126.77;;;15.28;96.98
32492;BME280;20605;49.742;18.802;2023-06-04T04:41:50;98128.05;;;15.26;96.23
32492;BME280;20605;49.742;18.802;2023-06-04T04:44:18;98127.70;;;15.30;97.53
32492;BME280;20605;49.742;18.802;2023-06-04T04:46:43;98122.67;;;15.71;97.80
32492;BME280;20605;49.742;18.802;2023-06-04T04:49:09;98124.90;;;16.33;96.25
32492;BME280;20605;49.742;18.802;2023-06-04T04:51:35;98123.67;;;16.82;95.14
32492;BME280;20605;49.742;18.802;2023-06-04T04:54:01;98122.23;;;17.19;93.72
32492;BME280;20605;49.742;18.802;2023-06-04T04:56:28;98121.57;;;17.67;94.74
32492;BME280;20605;49.742;18.802;2023-06-04T04:58:55;98121.92;;;18.14;94.28
32492;BME280;20605;49.742;18.802;2023-06-04T05:01:21;98123.94;;;18.57;93.59
32492;BME280;20605;49.742;18.802;2023-06-04T05:03:48;98120.48;;;19.03;92.98
32492;BME280;20605;49.742;18.802;2023-06-04T05:06:17;98123.08;;;19.21;91.20
32492;BME280;20605;49.742;18.802;2023-06-04T05:08:43;98118.08;;;19.48;90.53
32492;BME280;20605;49.742;18.802;2023-06-04T05:11:09;98120.82;;;19.77;88.82
32492;BME280;20605;49.742;18.802;2023-06-04T05:13:35;98126.68;;;19.98;87.43
32492;BME280;20605;49.742;18.802;2023-06-04T05:16:02;98130.63;;;20.13;87.74
32492;BME280;20605;49.742;18.802;2023-06-04T05:18:32;98130.58;;;20.17;86.43
32492;BME280;20605;49.742;18.802;2023-06-04T05:21:00;98131.27;;;20.23;85.24
32492;BME280;20605;49.742;18.802;2023-06-04T05:23:28;98130.80;;;20.33;84.03
32492;BME280;20605;49.742;18.802;2023-06-04T05:26:00;98126.34;;;20.52;83.48
32492;BME280;20605;49.742;18.802;2023-06-04T05:28:30;98132.52;;;20.65;84.66
32492;BME280;20605;49.742;18.802;2023-06-04T05:31:00;98129.77;;;20.74;83.05
32492;BME280;20605;49.742;18.802;2023-06-04T05:33:28;98129.92;;;21.00;82.88
32492;BME280;20605;49.742;18.802;2023-06-04T05:35:57;98132.56;;;21.26;81.55
32492;BME280;20605;49.742;18.802;2023-06-04T05:38:24;98133.46;;;21.58;80.79
32492;BME280;20605;49.742;18.802;2023-06-04T05:40:54;98138.45;;;21.97;81.19
32492;BME280;20605;49.742;18.802;2023-06-04T05:43:21;98140.42;;;22.23;78.99
32492;BME280;20605;49.742;18.802;2023-06-04T05:45:48;98139.86;;;22.50;79.20
32492;BME280;20605;49.742;18.802;2023-06-04T05:48:14;98143.39;;;22.73;78.72
32492;BME280;20605;49.742;18.802;2023-06-04T05:50:40;98133.64;;;22.97;78.12
32492;BME280;20605;49.742;18.802;2023-06-04T05:53:06;98135.00;;;23.16;76.72
32492;BME280;20605;49.742;18.802;2023-06-04T05:55:32;98134.50;;;23.25;76.43
32492;BME280;20605;49.742;18.802;2023-06-04T05:57:58;98138.42;;;23.49;76.90
32492;BME280;20605;49.742;18.802;2023-06-04T06:00:24;98139.57;;;23.97;76.31
32492;BME280;20605;49.742;18.802;2023-06-04T06:02:50;98140.66;;;24.30;74.51
32492;BME280;20605;49.742;18.802;2023-06-04T06:05:47;98142.01;;;24.60;72.43
32492;BME280;20605;49.742;18.802;2023-06-04T06:08:13;98147.90;;;24.89;73.67
32492;BME280;20605;49.742;18.802;2023-06-04T06:10:40;98146.42;;;25.04;71.80
32492;BME280;20605;49.742;18.802;2023-06-04T06:13:06;98142.85;;;24.88;71.26
32492;BME280;20605;49.742;18.802;2023-06-04T06:15:32;98148.68;;;24.69;69.98
32492;BME280;20605;49.742;18.802;2023-06-04T06:17:58;98151.35;;;24.29;69.50
32492;BME280;20605;49.742;18.802;2023-06-04T06:20:24;98154.16;;;23.98;69.62
32492;BME280;20605;49.742;18.802;2023-06-04T06:22:50;98154.75;;;23.87;69.75
32492;BME280;20605;49.742;18.802;2023-06-04T06:25:18;98163.23;;;23.89;68.15
32492;BME280;20605;49.742;18.802;2023-06-04T06:27:50;98160.06;;;23.98;67.90
32492;BME280;20605;49.742;18.802;2023-06-04T06:30:17;98161.11;;;24.35;67.60
32492;BME280;20605;49.742;18.802;2023-06-04T06:32:43;98160.30;;;24.54;67.15
32492;BME280;20605;49.742;18.802;2023-06-04T06:35:09;98156.77;;;24.77;66.78
32492;BME280;20605;49.742;18.802;2023-06-04T06:37:35;98158.43;;;25.01;66.67
32492;BME280;20605;49.742;18.802;2023-06-04T06:40:00;98152.06;;;25.44;66.93
32492;BME280;20605;49.742;18.802;2023-06-04T06:42:26;98157.52;;;25.69;66.27
32492;BME280;20605;49.742;18.802;2023-06-04T06:44:52;98154.63;;;25.92;65.77
32492;BME280;20605;49.742;18.802;2023-06-04T06:47:18;98161.00;;;26.20;65.37
32492;BME280;20605;49.742;18.802;2023-06-04T06:49:43;98160.93;;;26.64;63.67
32492;BME280;20605;49.742;18.802;2023-06-04T06:52:09;98164.23;;;26.98;63.62
32492;BME280;20605;49.742;18.802;2023-06-04T06:54:35;98161.45;;;27.26;63.10
32492;BME280;20605;49.742;18.802;2023-06-04T06:57:00;98159.20;;;27.57;63.02
32492;BME280;20605;49.742;18.802;2023-06-04T06:59:26;98159.38;;;27.85;62.65
32492;BME280;20605;49.742;18.802;2023-06-04T07:01:52;98160.72;;;28.04;62.36
32492;BME280;20605;49.742;18.802;2023-06-04T07:04:18;98164.52;;;28.29;61.46
32492;BME280;20605;49.742;18.802;2023-06-04T07:06:43;98163.71;;;28.32;60.91
32492;BME280;20605;49.742;18.802;2023-06-04T07:09:09;98159.48;;;28.49;60.59
32492;BME280;20605;49.742;18.802;2023-06-04T07:11:35;98162.02;;;28.57;59.93
32492;BME280;20605;49.742;18.802;2023-06-04T07:14:01;98160.23;;;28.68;59.64
32492;BME280;20605;49.742;18.802;2023-06-04T07:16:29;98163.67;;;28.78;60.05
32492;BME280;20605;49.742;18.802;2023-06-04T07:18:55;98167.03;;;29.07;58.51
32492;BME280;20605;49.742;18.802;2023-06-04T07:21:21;98162.82;;;29.36;58.37
32492;BME280;20605;49.742;18.802;2023-06-04T07:23:49;98163.27;;;29.64;57.34
32492;BME280;20605;49.742;18.802;2023-06-04T07:26:19;98161.39;;;29.74;56.32
32492;BME280;20605;49.742;18.802;2023-06-04T07:28:45;98163.25;;;29.78;56.61
32492;BME280;20605;49.742;18.802;2023-06-04T07:31:15;98162.75;;;29.90;56.10
32492;BME280;20605;49.742;18.802;2023-06-04T07:33:41;98165.89;;;30.14;56.72
32492;BME280;20605;49.742;18.802;2023-06-04T07:36:17;98168.55;;;30.33;56.12
32492;BME280;20605;49.742;18.802;2023-06-04T07:38:43;98164.80;;;30.72;54.79
32492;BME280;20605;49.742;18.802;2023-06-04T07:41:09;98164.61;;;30.84;54.14
32492;BME280;20605;49.742;18.802;2023-06-04T07:43:35;98164.81;;;31.02;54.76
32492;BME280;20605;49.742;18.802;2023-06-04T07:46:04;98168.68;;;31.09;54.62
32492;BME280;20605;49.742;18.802;2023-06-04T07:48:32;98169.06;;;31.20;54.08
32492;BME280;20605;49.742;18.802;2023-06-04T07:50:59;98167.07;;;31.37;53.18
32492;BME280;20605;49.742;18.802;2023-06-04T07:53:24;98165.76;;;31.74;52.48
32492;BME280;20605;49.742;18.802;2023-06-04T07:55:51;98166.06;;;31.95;51.84
32492;BME280;20605;49.742;18.802;2023-06-04T07:58:16;98166.55;;;32.14;52.32
32492;BME280;20605;49.742;18.802;2023-06-04T08:00:42;98167.48;;;32.03;51.14
32492;BME280;20605;49.742;18.802;2023-06-04T08:03:10;98170.09;;;31.82;51.32
32492;BME280;20605;49.742;18.802;2023-06-04T08:05:36;98171.20;;;31.91;51.39
32492;BME280;20605;49.742;18.802;2023-06-04T08:08:01;98170.86;;;32.06;50.99
32492;BME280;20605;49.742;18.802;2023-06-04T08:10:29;98170.13;;;32.06;49.93
32492;BME280;20605;49.742;18.802;2023-06-04T08:12:58;98167.09;;;32.00;50.11
32492;BME280;20605;49.742;18.802;2023-06-04T08:15:23;98162.52;;;32.23;49.70
32492;BME280;20605;49.742;18.802;2023-06-04T08:17:49;98163.17;;;32.20;49.73
32492;BME280;20605;49.742;18.802;2023-06-04T08:20:14;98162.61;;;32.33;49.04
32492;BME280;20605;49.742;18.802;2023-06-04T08:22:40;98164.55;;;32.28;48.21
32492;BME280;20605;49.742;18.802;2023-06-04T08:25:06;98164.81;;;32.22;48.52
32492;BME280;20605;49.742;18.802;2023-06-04T08:27:32;98169.12;;;32.39;48.18
32492;BME280;20605;49.742;18.802;2023-06-04T08:29:58;98167.76;;;32.41;47.54
32492;BME280;20605;49.742;18.802;2023-06-04T08:32:23;98166.18;;;32.48;46.93
32492;BME280;20605;49.742;18.802;2023-06-04T08:34:49;98165.96;;;32.64;47.57
32492;BME280;20605;49.742;18.802;2023-06-04T08:37:16;98167.23;;;32.64;47.50
32492;BME280;20605;49.742;18.802;2023-06-04T08:39:42;98173.48;;;33.07;47.76
32492;BME280;20605;49.742;18.802;2023-06-04T08:42:07;98170.52;;;33.53;46.86
32492;BME280;20605;49.742;18.802;2023-06-04T08:44:37;98167.42;;;33.44;45.85
32492;BME280;20605;49.742;18.802;2023-06-04T08:47:04;98171.90;;;33.24;46.29
32492;BME280;20605;49.742;18.802;2023-06-04T08:49:34;98175.60;;;33.48;46.26
32492;BME280;20605;49.742;18.802;2023-06-04T08:52:01;98171.78;;;33.65;45.92
32492;BME280;20605;49.742;18.802;2023-06-04T08:54:28;98174.42;;;33.81;46.10
32492;BME280;20605;49.742;18.802;2023-06-04T08:56:55;98177.82;;;33.89;45.98
32492;BME280;20605;49.742;18.802;2023-06-04T08:59:21;98174.20;;;34.11;45.77
32492;BME280;20605;49.742;18.802;2023-06-04T09:01:46;98173.55;;;34.15;45.32
32492;BME280;20605;49.742;18.802;2023-06-04T09:04:12;98172.65;;;33.94;44.63
32492;BME280;20605;49.742;18.802;2023-06-04T09:06:38;98173.09;;;33.75;44.45
32492;BME280;20605;49.742;18.802;2023-06-04T09:09:05;98174.35;;;33.67;44.53
32492;BME280;20605;49.742;18.802;2023-06-04T09:11:41;98174.09;;;33.84;44.83
32492;BME280;20605;49.742;18.802;2023-06-04T09:14:11;98171.23;;;34.01;44.68
32492;BME280;20605;49.742;18.802;2023-06-04T09:16:43;98175.57;;;34.29;44.56
32492;BME280;20605;49.742;18.802;2023-06-04T09:19:08;98171.77;;;34.31;43.64
32492;BME280;20605;49.742;18.802;2023-06-04T09:21:34;98170.32;;;34.03;43.07
32492;BME280;20605;49.742;18.802;2023-06-04T09:23:59;98167.52;;;33.75;42.50
32492;BME280;20605;49.742;18.802;2023-06-04T09:26:25;98169.16;;;33.19;41.89
32492;BME280;20605;49.742;18.802;2023-06-04T09:28:51;98170.69;;;32.59;42.65
32492;BME280;20605;49.742;18.802;2023-06-04T09:31:20;98169.17;;;32.41;42.57
32492;BME280;20605;49.742;18.802;2023-06-04T09:33:50;98163.84;;;32.36;42.63
32492;BME280;20605;49.742;18.802;2023-06-04T09:36:16;98163.12;;;32.14;42.88
32492;BME280;20605;49.742;18.802;2023-06-04T09:38:45;98162.39;;;32.44;43.49
32492;BME280;20605;49.742;18.802;2023-06-04T09:41:17;98161.90;;;32.23;43.10
32492;BME280;20605;49.742;18.802;2023-06-04T09:43:44;98161.02;;;31.47;42.93
32492;BME280;20605;49.742;18.802;2023-06-04T09:46:11;98166.80;;;30.56;43.61
32492;BME280;20605;49.742;18.802;2023-06-04T09:48:37;98163.79;;;30.12;44.63
32492;BME280;20605;49.742;18.802;2023-06-04T09:51:06;98165.92;;;29.83;45.11
32492;BME280;20605;49.742;18.802;2023-06-04T09:53:31;98166.66;;;29.30;45.51
32492;BME280;20605;49.742;18.802;2023-06-04T09:55:58;98158.67;;;28.87;46.10
32492;BME280;20605;49.742;18.802;2023-06-04T09:58:28;98153.59;;;28.56;47.04
32492;BME280;20605;49.742;18.802;2023-06-04T10:00:54;98154.85;;;28.27;47.32
32492;BME280;20605;49.742;18.802;2023-06-04T10:03:21;98149.85;;;27.91;47.79
32492;BME280;20605;49.742;18.802;2023-06-04T10:05:52;98146.19;;;27.40;48.25
32492;BME280;20605;49.742;18.802;2023-06-04T10:08:18;98152.58;;;26.87;48.87
32492;BME280;20605;49.742;18.802;2023-06-04T10:10:46;98155.30;;;26.54;50.48
32492;BME280;20605;49.742;18.802;2023-06-04T10:13:19;98153.51;;;26.36;50.25
32492;BME280;20605;49.742;18.802;2023-06-04T10:15:46;98151.44;;;26.06;50.55
32492;BME280;20605;49.742;18.802;2023-06-04T10:18:11;98150.29;;;25.73;51.43
32492;BME280;20605;49.742;18.802;2023-06-04T10:20:39;98148.63;;;25.53;51.58
32492;BME280;20605;49.742;18.802;2023-06-04T10:23:05;98147.23;;;25.32;51.76
32492;BME280;20605;49.742;18.802;2023-06-04T10:25:34;98145.91;;;25.08;52.04
32492;BME280;20605;49.742;18.802;2023-06-04T10:28:00;98149.02;;;24.70;52.70
32492;BME280;20605;49.742;18.802;2023-06-04T10:30:26;98145.95;;;24.47;53.72
32492;BME280;20605;49.742;18.802;2023-06-04T10:32:52;98146.75;;;24.44;54.14
32492;BME280;20605;49.742;18.802;2023-06-04T10:35:28;98151.70;;;24.34;54.34
32492;BME280;20605;49.742;18.802;2023-06-04T10:38:03;98154.84;;;24.25;55.00
32492;BME280;20605;49.742;18.802;2023-06-04T10:40:31;98151.48;;;24.12;54.77
32492;BME280;20605;49.742;18.802;2023-06-04T10:42:56;98151.87;;;23.94;55.31
32492;BME280;20605;49.742;18.802;2023-06-04T10:45:29;98152.02;;;23.86;55.65
32492;BME280;20605;49.742;18.802;2023-06-04T10:48:05;98148.75;;;23.78;55.80
32492;BME280;20605;49.742;18.802;2023-06-04T10:50:34;98150.30;;;23.67;55.86
32492;BME280;20605;49.742;18.802;2023-06-04T10:53:01;98149.02;;;23.59;56.39
32492;BME280;20605;49.742;18.802;2023-06-04T10:55:31;98149.38;;;23.63;56.12
32492;BME280;20605;49.742;18.802;2023-06-04T10:58:00;98150.93;;;23.61;56.32
32492;BME280;20605;49.742;18.802;2023-06-04T11:00:37;98151.55;;;23.62;56.49
32492;BME280;20605;49.742;18.802;2023-06-04T11:03:03;98154.23;;;23.64;56.57
32492;BME280;20605;49.742;18.802;2023-06-04T11:05:40;98148.39;;;23.62;56.33
32492;BME280;20605;49.742;18.802;2023-06-04T11:08:06;98153.14;;;23.46;55.58
32492;BME280;20605;49.742;18.802;2023-06-04T11:10:33;98154.66;;;23.43;55.99
32492;BME280;20605;49.742;18.802;2023-06-04T11:12:59;98152.83;;;23.44;55.63
32492;BME280;20605;49.742;18.802;2023-06-04T11:15:24;98153.29;;;23.34;56.08
32492;BME280;20605;49.742;18.802;2023-06-04T11:17:50;98152.93;;;23.40;56.86
32492;BME280;20605;49.742;18.802;2023-06-04T11:20:19;98145.98;;;23.47;56.82
32492;BME280;20605;49.742;18.802;2023-06-04T11:25:17;98147.02;;;23.66;56.98
32492;BME280;20605;49.742;18.802;2023-06-04T11:27:42;98147.45;;;23.63;55.95
32492;BME280;20605;49.742;18.802;2023-06-04T11:30:08;98149.73;;;23.52;56.55
32492;BME280;20605;49.742;18.802;2023-06-04T11:32:34;98148.14;;;23.50;57.08
32492;BME280;20605;49.742;18.802;2023-06-04T11:35:06;98147.16;;;23.58;57.15
32492;BME280;20605;49.742;18.802;2023-06-04T11:37:32;98146.16;;;23.70;56.99
32492;BME280;20605;49.742;18.802;2023-06-04T11:39:58;98145.19;;;23.80;56.41
32492;BME280;20605;49.742;18.802;2023-06-04T11:42:27;98142.12;;;23.81;56.66
32492;BME280;20605;49.742;18.802;2023-06-04T11:44:57;98143.08;;;23.87;56.67
32492;BME280;20605;49.742;18.802;2023-06-04T11:47:23;98141.69;;;23.93;56.65
32492;BME280;20605;49.742;18.802;2023-06-04T11:49:55;98143.71;;;23.96;56.02
32492;BME280;20605;49.742;18.802;2023-06-04T11:52:23;98138.68;;;24.01;56.58
32492;BME280;20605;49.742;18.802;2023-06-04T11:54:49;98142.84;;;24.11;56.83
32492;BME280;20605;49.742;18.802;2023-06-04T11:57:15;98145.58;;;24.10;56.41
32492;BME280;20605;49.742;18.802;2023-06-04T11:59:40;98144.91;;;24.03;57.52
32492;BME280;20605;49.742;18.802;2023-06-04T12:02:07;98147.34;;;24.08;57.44
32492;BME280;20605;49.742;18.802;2023-06-04T12:04:33;98147.10;;;24.18;57.87
32492;BME280;20605;49.742;18.802;2023-06-04T12:06:59;98145.89;;;24.28;56.66
32492;BME280;20605;49.742;18.802;2023-06-04T12:09:30;98147.24;;;24.22;56.83
32492;BME280;20605;49.742;18.802;2023-06-04T12:12:00;98147.39;;;24.21;56.72
32492;BME280;20605;49.742;18.802;2023-06-04T12:14:26;98144.80;;;24.24;56.49
32492;BME280;20605;49.742;18.802;2023-06-04T12:16:56;98143.70;;;24.25;56.32
32492;BME280;20605;49.742;18.802;2023-06-04T12:19:22;98143.09;;;24.23;56.17
32492;BME280;20605;49.742;18.802;2023-06-04T12:21:58;98140.64;;;24.25;56.14
32492;BME280;20605;49.742;18.802;2023-06-04T12:24:25;98145.09;;;24.25;56.17
32492;BME280;20605;49.742;18.802;2023-06-04T12:27:00;98142.84;;;24.24;56.69
32492;BME280;20605;49.742;18.802;2023-06-04T12:29:26;98147.54;;;24.30;56.37
32492;BME280;20605;49.742;18.802;2023-06-04T12:31:51;98143.77;;;24.26;56.30
32492;BME280;20605;49.742;18.802;2023-06-04T12:34:26;98144.38;;;24.23;56.49
32492;BME280;20605;49.742;18.802;2023-06-04T12:36:51;98147.07;;;24.22;57.04
32492;BME280;20605;49.742;18.802;2023-06-04T12:39:17;98151.42;;;24.28;57.37
32492;BME280;20605;49.742;18.802;2023-06-04T12:41:46;98148.89;;;24.31;57.00
32492;BME280;20605;49.742;18.802;2023-06-04T12:44:12;98147.53;;;24.32;56.60
32492;BME280;20605;49.742;18.802;2023-06-04T12:46:37;98143.76;;;24.33;56.79
32492;BME280;20605;49.742;18.802;2023-06-04T12:49:03;98146.61;;;24.33;56.59
32492;BME280;20605;49.742;18.802;2023-06-04T12:51:28;98147.01;;;24.39;57.08
32492;BME280;20605;49.742;18.802;2023-06-04T12:53:54;98143.17;;;24.53;57.02